sensor_id;sensor_type;location;lat;lon;timestamp;temperature;humidity
52103;DHT22;38101;53.126;6.878;2023-10-09T00:02:02;14.00;99.90
52103;DHT22;38101;53.126;6.878;2023-10-09T00:04:31;14.00;99.90
52103;DHT22;38101;53.126;6.878;2023-10-09T00:06:57;14.00;99.90
52103;DHT22;38101;53.126;6.878;2023-10-09T00:09:25;14.00;99.90
52103;DHT22;38101;53.126;6.878;2023-10-09T00:11:51;14.00;99.90
52103;DHT22;38101;53.126;6.878;2023-10-09T00:14:27;14.00;99.90
52103;DHT22;38101;53.126;6.878;2023-10-09T00:16:56;14.00;99.90
52103;DHT22;38101;53.126;6.878;2023-10-09T00:19:54;14.00;99.90
52103;DHT22;38101;53.126;6.878;2023-10-09T00:22:25;14.00;99.90
52103;DHT22;38101;53.126;6.878;2023-10-09T00:24:57;14.00;99.90
52103;DHT22;38101;53.126;6.878;2023-10-09T00:27:45;14.00;99.90
52103;DHT22;38101;53.126;6.878;2023-10-09T00:30:13;14.00;99.90
52103;DHT22;38101;53.126;6.878;2023-10-09T00:32:41;14.00;99.90
52103;DHT22;38101;53.126;6.878;2023-10-09T00:35:09;14.00;99.90
52103;DHT22;38101;53.126;6.878;2023-10-09T00:37:53;14.00;99.90
52103;DHT22;38101;53.126;6.878;2023-10-09T00:40:30;14.00;99.90
52103;DHT22;38101;53.126;6.878;2023-10-09T00:42:57;14.00;99.90
52103;DHT22;38101;53.126;6.878;2023-10-09T00:45:27;14.00;99.90
52103;DHT22;38101;53.126;6.878;2023-10-09T00:47:58;14.00;99.90
52103;DHT22;38101;53.126;6.878;2023-10-09T00:50:27;14.00;99.90
52103;DHT22;38101;53.126;6.878;2023-10-09T00:53:01;14.00;99.90
52103;DHT22;38101;53.126;6.878;2023-10-09T00:55:36;14.00;99.90
52103;DHT22;38101;53.126;6.878;2023-10-09T00:58:10;14.00;99.90
52103;DHT22;38101;53.126;6.878;2023-10-09T01:00:43;14.00;99.90
52103;DHT22;38101;53.126;6.878;2023-10-09T01:03:09;14.00;99.90
52103;DHT22;38101;53.126;6.878;2023-10-09T01:05:38;14.00;99.90
52103;DHT22;38101;53.126;6.878;2023-10-09T01:08:04;14.00;99.90
52103;DHT22;38101;53.126;6.878;2023-10-09T01:10:50;14.00;99.90
52103;DHT22;38101;53.126;6.878;2023-10-09T01:13:18;14.10;99.90
52103;DHT22;38101;53.126;6.878;2023-10-09T01:15:44;14.00;99.90
52103;DHT22;38101;53.126;6.878;2023-10-09T01:18:11;14.10;99.90
52103;DHT22;38101;53.126;6.878;2023-10-09T01:20:38;14.10;99.90
52103;DHT22;38101;53.126;6.878;2023-10-09T01:23:11;14.10;99.90
52103;DHT22;38101;53.126;6.878;2023-10-09T01:25:37;14.10;99.90
52103;DHT22;38101;53.126;6.878;2023-10-09T01:28:11;14.10;99.90
52103;DHT22;38101;53.126;6.878;2023-10-09T01:30:44;14.10;99.90
52103;DHT22;38101;53.126;6.878;2023-10-09T01:33:11;14.10;99.90
52103;DHT22;38101;53.126;6.878;2023-10-09T01:35:50;14.10;99.90
52103;DHT22;38101;53.126;6.878;2023-10-09T01:38:21;14.10;99.90
52103;DHT22;38101;53.126;6.878;2023-10-09T01:40:57;14.10;99.90
52103;DHT22;38101;53.126;6.878;2023-10-09T01:43:30;14.10;99.90
52103;DHT22;38101;53.126;6.878;2023-10-09T01:46:00;14.10;99.90
52103;DHT22;38101;53.126;6.878;2023-10-09T01:48:27;14.10;99.90
52103;DHT22;38101;53.126;6.878;2023-10-09T01:50:52;14.10;99.90
52103;DHT22;38101;53.126;6.878;2023-10-09T01:53:19;14.10;99.90
52103;DHT22;38101;53.126;6.878;2023-10-09T01:55:47;14.10;99.90
52103;DHT22;38101;53.126;6.878;2023-10-09T01:58:15;14.10;99.90
52103;DHT22;38101;53.126;6.878;2023-10-09T02:00:47;14.10;99.90
52103;DHT22;38101;53.126;6.878;2023-10-09T02:03:22;14.10;99.90
52103;DHT22;38101;53.126;6.878;2023-10-09T02:05:52;14.10;99.90
52103;DHT22;38101;53.126;6.878;2023-10-09T02:08:43;14.10;99.90
52103;DHT22;38101;53.126;6.878;2023-10-09T02:11:16;14.10;99.90
52103;DHT22;38101;53.126;6.878;2023-10-09T02:13:50;14.10;99.90
52103;DHT22;38101;53.126;6.878;2023-10-09T02:16:26;14.10;99.90
52103;DHT22;38101;53.126;6.878;2023-10-09T02:18:55;14.10;99.90
52103;DHT22;38101;53.126;6.878;2023-10-09T02:21:24;14.10;99.90
52103;DHT22;38101;53.126;6.878;2023-10-09T02:24:02;14.10;99.90
52103;DHT22;38101;53.126;6.878;2023-10-09T02:26:32;14.10;99.90
52103;DHT22;38101;53.126;6.878;2023-10-09T02:29:18;14.10;99.90
52103;DHT22;38101;53.126;6.878;2023-10-09T02:31:49;14.10;99.90
52103;DHT22;38101;53.126;6.878;2023-10-09T02:34:18;14.00;99.90
52103;DHT22;38101;53.126;6.878;2023-10-09T02:36:53;14.00;99.90
52103;DHT22;38101;53.126;6.878;2023-10-09T02:39:31;14.00;99.90
52103;DHT22;38101;53.126;6.878;2023-10-09T02:42:09;14.00;99.90
52103;DHT22;38101;53.126;6.878;2023-10-09T02:44:37;14.10;99.90
52103;DHT22;38101;53.126;6.878;2023-10-09T02:47:06;14.10;99.90
52103;DHT22;38101;53.126;6.878;2023-10-09T02:49:38;14.10;99.90
52103;DHT22;38101;53.126;6.878;2023-10-09T02:52:05;14.10;99.90
52103;DHT22;38101;53.126;6.878;2023-10-09T02:54:33;14.10;99.90
52103;DHT22;38101;53.126;6.878;2023-10-09T02:57:06;14.00;99.90
52103;DHT22;38101;53.126;6.878;2023-10-09T02:59:34;14.00;99.90
52103;DHT22;38101;53.126;6.878;2023-10-09T03:02:00;14.00;99.90
52103;DHT22;38101;53.126;6.878;2023-10-09T03:04:26;14.00;99.90
52103;DHT22;38101;53.126;6.878;2023-10-09T03:06:59;14.00;99.90
52103;DHT22;38101;53.126;6.878;2023-10-09T03:09:26;14.00;99.90
52103;DHT22;38101;53.126;6.878;2023-10-09T03:11:57;14.00;99.90
52103;DHT22;38101;53.126;6.878;2023-10-09T03:14:33;14.00;99.90
52103;DHT22;38101;53.126;6.878;2023-10-09T03:17:01;14.00;99.90
52103;DHT22;38101;53.126;6.878;2023-10-09T03:19:31;14.00;99.90
52103;DHT22;38101;53.126;6.878;2023-10-09T03:22:03;14.00;99.90
52103;DHT22;38101;53.126;6.878;2023-10-09T03:24:29;14.10;99.90
52103;DHT22;38101;53.126;6.878;2023-10-09T03:26:56;14.10;99.90
52103;DHT22;38101;53.126;6.878;2023-10-09T03:29:23;14.10;99.90
52103;DHT22;38101;53.126;6.878;2023-10-09T03:31:48;14.00;99.90
52103;DHT22;38101;53.126;6.878;2023-10-09T03:34:16;14.10;99.90
52103;DHT22;38101;53.126;6.878;2023-10-09T03:36:46;14.10;99.90
52103;DHT22;38101;53.126;6.878;2023-10-09T03:39:13;14.10;99.90
52103;DHT22;38101;53.126;6.878;2023-10-09T03:41:58;14.20;99.90
52103;DHT22;38101;53.126;6.878;2023-10-09T03:44:25;14.20;99.90
52103;DHT22;38101;53.126;6.878;2023-10-09T03:46:54;14.20;99.90
52103;DHT22;38101;53.126;6.878;2023-10-09T03:49:19;14.20;99.90
52103;DHT22;38101;53.126;6.878;2023-10-09T03:51:49;14.20;99.90
52103;DHT22;38101;53.126;6.878;2023-10-09T03:54:15;14.20;99.90
52103;DHT22;38101;53.126;6.878;2023-10-09T03:56:41;14.20;99.90
52103;DHT22;38101;53.126;6.878;2023-10-09T03:59:07;14.30;99.90
52103;DHT22;38101;53.126;6.878;2023-10-09T04:01:36;14.30;99.90
52103;DHT22;38101;53.126;6.878;2023-10-09T04:04:05;14.30;99.90
52103;DHT22;38101;53.126;6.878;2023-10-09T04:06:33;14.40;99.90
52103;DHT22;38101;53.126;6.878;2023-10-09T04:09:03;14.30;99.90
52103;DHT22;38101;53.126;6.878;2023-10-09T04:11:54;14.30;99.90
52103;DHT22;38101;53.126;6.878;2023-10-09T04:14:42;14.30;99.90
52103;DHT22;38101;53.126;6.878;2023-10-09T04:17:20;14.30;99.90
52103;DHT22;38101;53.126;6.878;2023-10-09T04:19:59;14.40;99.90
52103;DHT22;38101;53.126;6.878;2023-10-09T04:22:43;14.40;99.90
52103;DHT22;38101;53.126;6.878;2023-10-09T04:25:28;14.40;99.90
52103;DHT22;38101;53.126;6.878;2023-10-09T04:28:14;14.50;99.90
52103;DHT22;38101;53.126;6.878;2023-10-09T04:30:40;14.40;99.90
52103;DHT22;38101;53.126;6.878;2023-10-09T04:33:09;14.50;99.90
52103;DHT22;38101;53.126;6.878;2023-10-09T04:36:07;14.50;99.90
52103;DHT22;38101;53.126;6.878;2023-10-09T04:38:48;14.40;99.90
52103;DHT22;38101;53.126;6.878;2023-10-09T04:41:32;14.50;99.90
52103;DHT22;38101;53.126;6.878;2023-10-09T04:44:07;14.50;99.90
52103;DHT22;38101;53.126;6.878;2023-10-09T04:46:49;14.50;99.90
52103;DHT22;38101;53.126;6.878;2023-10-09T04:49:41;14.50;99.90
52103;DHT22;38101;53.126;6.878;2023-10-09T04:52:13;14.50;99.90
52103;DHT22;38101;53.126;6.878;2023-10-09T04:54:51;14.50;99.90
52103;DHT22;38101;53.126;6.878;2023-10-09T04:57:42;14.60;99.90
52103;DHT22;38101;53.126;6.878;2023-10-09T05:00:18;14.60;99.90
52103;DHT22;38101;53.126;6.878;2023-10-09T05:02:57;14.60;99.90
52103;DHT22;38101;53.126;6.878;2023-10-09T05:05:28;14.60;99.90
52103;DHT22;38101;53.126;6.878;2023-10-09T05:08:17;14.60;99.90
52103;DHT22;38101;53.126;6.878;2023-10-09T05:11:03;14.60;99.90
52103;DHT22;38101;53.126;6.878;2023-10-09T05:13:36;14.60;99.90
52103;DHT22;38101;53.126;6.878;2023-10-09T05:16:09;14.70;99.90
52103;DHT22;38101;53.126;6.878;2023-10-09T05:18:45;14.70;99.90
52103;DHT22;38101;53.126;6.878;2023-10-09T05:21:22;14.70;99.90
52103;DHT22;38101;53.126;6.878;2023-10-09T05:24:03;14.70;99.90
52103;DHT22;38101;53.126;6.878;2023-10-09T05:26:50;14.70;99.90
52103;DHT22;38101;53.126;6.878;2023-10-09T05:29:24;14.70;99.90
52103;DHT22;38101;53.126;6.878;2023-10-09T05:31:51;14.80;99.90
52103;DHT22;38101;53.126;6.878;2023-10-09T05:34:29;14.80;99.90
52103;DHT22;38101;53.126;6.878;2023-10-09T05:37:13;14.80;99.90
52103;DHT22;38101;53.126;6.878;2023-10-09T05:39:44;14.90;99.90
52103;DHT22;38101;53.126;6.878;2023-10-09T05:42:24;14.90;99.90
52103;DHT22;38101;53.126;6.878;2023-10-09T05:44:54;15.00;99.90
52103;DHT22;38101;53.126;6.878;2023-10-09T05:47:25;15.00;99.90
52103;DHT22;38101;53.126;6.878;2023-10-09T05:49:57;15.00;99.90
52103;DHT22;38101;53.126;6.878;2023-10-09T05:52:43;15.10;99.90
52103;DHT22;38101;53.126;6.878;2023-10-09T05:55:18;15.10;99.90
52103;DHT22;38101;53.126;6.878;2023-10-09T05:57:50;15.20;99.90
52103;DHT22;38101;53.126;6.878;2023-10-09T06:00:25;15.20;99.90
52103;DHT22;38101;53.126;6.878;2023-10-09T06:03:10;15.10;99.90
52103;DHT22;38101;53.126;6.878;2023-10-09T06:05:55;15.20;99.90
52103;DHT22;38101;53.126;6.878;2023-10-09T06:08:25;15.20;99.90
52103;DHT22;38101;53.126;6.878;2023-10-09T06:11:14;15.20;99.90
52103;DHT22;38101;53.126;6.878;2023-10-09T06:13:59;15.20;99.90
52103;DHT22;38101;53.126;6.878;2023-10-09T06:16:28;15.20;99.90
52103;DHT22;38101;53.126;6.878;2023-10-09T06:19:13;15.20;99.90
52103;DHT22;38101;53.126;6.878;2023-10-09T06:21:46;15.30;99.90
52103;DHT22;38101;53.126;6.878;2023-10-09T06:24:23;15.30;99.90
52103;DHT22;38101;53.126;6.878;2023-10-09T06:26:51;15.30;99.90
52103;DHT22;38101;53.126;6.878;2023-10-09T06:29:29;15.50;99.90
52103;DHT22;38101;53.126;6.878;2023-10-09T06:32:07;15.60;99.90
52103;DHT22;38101;53.126;6.878;2023-10-09T06:35:01;15.70;99.90
52103;DHT22;38101;53.126;6.878;2023-10-09T06:37:49;15.80;99.90
52103;DHT22;38101;53.126;6.878;2023-10-09T06:40:30;15.80;99.90
52103;DHT22;38101;53.126;6.878;2023-10-09T06:43:03;15.90;99.90
52103;DHT22;38101;53.126;6.878;2023-10-09T06:45:56;15.90;99.90
52103;DHT22;38101;53.126;6.878;2023-10-09T06:48:40;15.90;99.90
52103;DHT22;38101;53.126;6.878;2023-10-09T06:51:13;15.80;99.90
52103;DHT22;38101;53.126;6.878;2023-10-09T06:53:55;15.80;99.90
52103;DHT22;38101;53.126;6.878;2023-10-09T06:56:25;15.90;99.90
52103;DHT22;38101;53.126;6.878;2023-10-09T06:58:57;16.00;99.90
52103;DHT22;38101;53.126;6.878;2023-10-09T07:01:26;16.00;99.90
52103;DHT22;38101;53.126;6.878;2023-10-09T07:04:08;16.00;99.90
52103;DHT22;38101;53.126;6.878;2023-10-09T07:09:10;16.10;99.90
52103;DHT22;38101;53.126;6.878;2023-10-09T07:11:46;16.00;99.90
52103;DHT22;38101;53.126;6.878;2023-10-09T07:14:19;16.00;99.90
52103;DHT22;38101;53.126;6.878;2023-10-09T07:17:04;16.00;99.90
52103;DHT22;38101;53.126;6.878;2023-10-09T07:20:07;16.00;99.90
52103;DHT22;38101;53.126;6.878;2023-10-09T07:22:42;16.10;99.90
52103;DHT22;38101;53.126;6.878;2023-10-09T07:25:19;16.00;99.90
52103;DHT22;38101;53.126;6.878;2023-10-09T07:28:04;16.00;99.90
52103;DHT22;38101;53.126;6.878;2023-10-09T07:30:46;16.00;99.90
52103;DHT22;38101;53.126;6.878;2023-10-09T07:33:12;16.00;99.90
52103;DHT22;38101;53.126;6.878;2023-10-09T07:35:39;16.10;99.90
52103;DHT22;38101;53.126;6.878;2023-10-09T07:38:16;16.00;99.90
52103;DHT22;38101;53.126;6.878;2023-10-09T07:40:46;16.00;99.90
52103;DHT22;38101;53.126;6.878;2023-10-09T07:43:33;16.00;99.90
52103;DHT22;38101;53.126;6.878;2023-10-09T07:46:05;16.20;99.90
52103;DHT22;38101;53.126;6.878;2023-10-09T07:48:31;16.20;99.90
52103;DHT22;38101;53.126;6.878;2023-10-09T07:51:18;16.20;99.90
52103;DHT22;38101;53.126;6.878;2023-10-09T07:53:52;16.10;99.90
52103;DHT22;38101;53.126;6.878;2023-10-09T07:56:39;16.20;99.90
52103;DHT22;38101;53.126;6.878;2023-10-09T07:59:11;16.20;99.90
52103;DHT22;38101;53.126;6.878;2023-10-09T08:01:42;16.30;99.90
52103;DHT22;38101;53.126;6.878;2023-10-09T08:04:19;16.30;99.90
52103;DHT22;38101;53.126;6.878;2023-10-09T08:07:03;16.30;99.90
52103;DHT22;38101;53.126;6.878;2023-10-09T08:09:32;16.40;99.90
52103;DHT22;38101;53.126;6.878;2023-10-09T08:12:36;16.40;99.90
52103;DHT22;38101;53.126;6.878;2023-10-09T08:15:14;16.50;99.90
52103;DHT22;38101;53.126;6.878;2023-10-09T08:17:51;16.50;99.90
52103;DHT22;38101;53.126;6.878;2023-10-09T08:20:27;16.50;99.90
52103;DHT22;38101;53.126;6.878;2023-10-09T08:22:54;16.50;99.90
52103;DHT22;38101;53.126;6.878;2023-10-09T08:25:23;16.60;99.90
52103;DHT22;38101;53.126;6.878;2023-10-09T08:27:53;16.60;99.90
52103;DHT22;38101;53.126;6.878;2023-10-09T08:30:24;16.70;99.90
52103;DHT22;38101;53.126;6.878;2023-10-09T08:32:50;16.60;99.90
52103;DHT22;38101;53.126;6.878;2023-10-09T08:38:02;16.70;99.90
52103;DHT22;38101;53.126;6.878;2023-10-09T08:40:38;16.70;99.90
52103;DHT22;38101;53.126;6.878;2023-10-09T08:43:18;16.60;99.90
52103;DHT22;38101;53.126;6.878;2023-10-09T08:45:49;16.80;99.90
52103;DHT22;38101;53.126;6.878;2023-10-09T08:48:18;16.70;99.90
52103;DHT22;38101;53.126;6.878;2023-10-09T08:50:45;16.70;99.90
52103;DHT22;38101;53.126;6.878;2023-10-09T08:53:12;16.80;99.90
52103;DHT22;38101;53.126;6.878;2023-10-09T08:55:38;16.70;99.90
52103;DHT22;38101;53.126;6.878;2023-10-09T08:58:05;16.70;99.90
52103;DHT22;38101;53.126;6.878;2023-10-09T09:00:39;16.70;99.90
52103;DHT22;38101;53.126;6.878;2023-10-09T09:03:20;16.80;99.90
52103;DHT22;38101;53.126;6.878;2023-10-09T09:05:57;16.80;99.90
52103;DHT22;38101;53.126;6.878;2023-10-09T09:08:27;16.80;99.90
52103;DHT22;38101;53.126;6.878;2023-10-09T09:11:03;16.70;99.90
52103;DHT22;38101;53.126;6.878;2023-10-09T09:13:44;16.80;99.90
52103;DHT22;38101;53.126;6.878;2023-10-09T09:16:21;16.80;99.90
52103;DHT22;38101;53.126;6.878;2023-10-09T09:18:59;16.80;99.90
52103;DHT22;38101;53.126;6.878;2023-10-09T09:21:51;16.80;99.90
52103;DHT22;38101;53.126;6.878;2023-10-09T09:24:20;16.80;99.90
52103;DHT22;38101;53.126;6.878;2023-10-09T09:26:53;17.00;99.90
52103;DHT22;38101;53.126;6.878;2023-10-09T09:32:08;17.20;99.90
52103;DHT22;38101;53.126;6.878;2023-10-09T09:34:49;17.20;99.90
52103;DHT22;38101;53.126;6.878;2023-10-09T09:37:19;17.20;99.90
52103;DHT22;38101;53.126;6.878;2023-10-09T09:39:47;17.20;99.90
52103;DHT22;38101;53.126;6.878;2023-10-09T09:42:16;17.20;99.90
52103;DHT22;38101;53.126;6.878;2023-10-09T09:44:55;17.20;99.90
52103;DHT22;38101;53.126;6.878;2023-10-09T09:47:21;17.20;99.90
52103;DHT22;38101;53.126;6.878;2023-10-09T09:49:54;17.20;99.90
52103;DHT22;38101;53.126;6.878;2023-10-09T09:52:28;17.30;99.90
52103;DHT22;38101;53.126;6.878;2023-10-09T09:54:54;17.30;99.90
52103;DHT22;38101;53.126;6.878;2023-10-09T09:57:23;17.20;99.90
52103;DHT22;38101;53.126;6.878;2023-10-09T09:59:52;17.20;99.90
52103;DHT22;38101;53.126;6.878;2023-10-09T10:02:45;17.20;99.90
52103;DHT22;38101;53.126;6.878;2023-10-09T10:05:12;17.30;99.90
52103;DHT22;38101;53.126;6.878;2023-10-09T10:07:41;17.40;99.90
52103;DHT22;38101;53.126;6.878;2023-10-09T10:10:37;17.40;99.90
52103;DHT22;38101;53.126;6.878;2023-10-09T10:13:07;17.50;99.90
52103;DHT22;38101;53.126;6.878;2023-10-09T10:18:23;17.70;99.90
52103;DHT22;38101;53.126;6.878;2023-10-09T10:21:22;17.70;99.90
52103;DHT22;38101;53.126;6.878;2023-10-09T10:24:00;17.60;99.90
52103;DHT22;38101;53.126;6.878;2023-10-09T10:26:32;17.60;99.90
52103;DHT22;38101;53.126;6.878;2023-10-09T10:29:17;17.60;99.90
52103;DHT22;38101;53.126;6.878;2023-10-09T10:32:00;17.60;99.90
52103;DHT22;38101;53.126;6.878;2023-10-09T10:34:55;17.50;99.90
52103;DHT22;38101;53.126;6.878;2023-10-09T10:37:42;17.50;99.90
52103;DHT22;38101;53.126;6.878;2023-10-09T10:40:29;17.50;99.90
52103;DHT22;38101;53.126;6.878;2023-10-09T10:43:16;17.50;99.90
52103;DHT22;38101;53.126;6.878;2023-10-09T10:46:07;17.60;99.90
52103;DHT22;38101;53.126;6.878;2023-10-09T10:48:52;17.40;99.90
52103;DHT22;38101;53.126;6.878;2023-10-09T10:51:46;17.40;99.90
52103;DHT22;38101;53.126;6.878;2023-10-09T10:54:24;17.40;99.90
52103;DHT22;38101;53.126;6.878;2023-10-09T10:57:02;17.40;99.90
52103;DHT22;38101;53.126;6.878;2023-10-09T10:59:39;17.40;99.90
52103;DHT22;38101;53.126;6.878;2023-10-09T11:02:10;17.50;99.90
52103;DHT22;38101;53.126;6.878;2023-10-09T11:04:36;17.50;99.90
52103;DHT22;38101;53.126;6.878;2023-10-09T11:07:08;17.50;99.90
52103;DHT22;38101;53.126;6.878;2023-10-09T11:09:48;17.60;99.90
52103;DHT22;38101;53.126;6.878;2023-10-09T11:12:45;17.60;99.90
52103;DHT22;38101;53.126;6.878;2023-10-09T11:15:35;17.60;99.90
52103;DHT22;38101;53.126;6.878;2023-10-09T11:18:11;17.60;99.90
52103;DHT22;38101;53.126;6.878;2023-10-09T11:20:53;17.70;99.90
52103;DHT22;38101;53.126;6.878;2023-10-09T11:23:43;17.70;99.90
52103;DHT22;38101;53.126;6.878;2023-10-09T11:26:18;17.80;99.90
52103;DHT22;38101;53.126;6.878;2023-10-09T11:29:08;17.60;99.90
52103;DHT22;38101;53.126;6.878;2023-10-09T11:32:18;17.50;99.90
52103;DHT22;38101;53.126;6.878;2023-10-09T11:34:48;17.50;99.90
52103;DHT22;38101;53.126;6.878;2023-10-09T11:37:21;17.50;99.90
52103;DHT22;38101;53.126;6.878;2023-10-09T11:40:00;17.50;99.90
52103;DHT22;38101;53.126;6.878;2023-10-09T11:42:29;17.50;99.90
52103;DHT22;38101;53.126;6.878;2023-10-09T11:45:07;17.50;99.90
52103;DHT22;38101;53.126;6.878;2023-10-09T11:47:58;17.60;99.90
52103;DHT22;38101;53.126;6.878;2023-10-09T11:50:47;17.60;99.90
52103;DHT22;38101;53.126;6.878;2023-10-09T11:53:27;17.50;99.90
52103;DHT22;38101;53.126;6.878;2023-10-09T11:55:53;17.70;99.90
52103;DHT22;38101;53.126;6.878;2023-10-09T11:58:20;17.70;99.90
52103;DHT22;38101;53.126;6.878;2023-10-09T12:00:56;17.80;99.90
52103;DHT22;38101;53.126;6.878;2023-10-09T12:03:27;17.80;99.90
52103;DHT22;38101;53.126;6.878;2023-10-09T12:06:01;17.80;99.90
52103;DHT22;38101;53.126;6.878;2023-10-09T12:08:34;17.80;99.90
52103;DHT22;38101;53.126;6.878;2023-10-09T12:11:01;17.70;99.90
52103;DHT22;38101;53.126;6.878;2023-10-09T12:13:33;17.70;99.90
52103;DHT22;38101;53.126;6.878;2023-10-09T12:15:59;17.80;99.90
52103;DHT22;38101;53.126;6.878;2023-10-09T12:18:25;17.80;99.90
52103;DHT22;38101;53.126;6.878;2023-10-09T12:20:51;17.70;99.90
52103;DHT22;38101;53.126;6.878;2023-10-09T12:23:22;17.70;99.90
52103;DHT22;38101;53.126;6.878;2023-10-09T12:25:51;17.70;99.90
52103;DHT22;38101;53.126;6.878;2023-10-09T12:28:22;17.70;99.90
52103;DHT22;38101;53.126;6.878;2023-10-09T12:30:49;17.70;99.90
52103;DHT22;38101;53.126;6.878;2023-10-09T12:33:19;17.70;99.90
52103;DHT22;38101;53.126;6.878;2023-10-09T12:35:45;17.70;99.90
52103;DHT22;38101;53.126;6.878;2023-10-09T12:38:13;17.60;99.90
52103;DHT22;38101;53.126;6.878;2023-10-09T12:40:44;17.70;99.90
52103;DHT22;38101;53.126;6.878;2023-10-09T12:43:19;17.50;99.90
52103;DHT22;38101;53.126;6.878;2023-10-09T12:45:47;17.60;99.90
52103;DHT22;38101;53.126;6.878;2023-10-09T12:48:13;17.50;99.90
52103;DHT22;38101;53.126;6.878;2023-10-09T12:50:40;17.40;99.90
52103;DHT22;38101;53.126;6.878;2023-10-09T12:53:12;17.50;99.90
52103;DHT22;38101;53.126;6.878;2023-10-09T12:55:43;17.40;99.90
52103;DHT22;38101;53.126;6.878;2023-10-09T12:58:10;17.50;99.90
52103;DHT22;38101;53.126;6.878;2023-10-09T13:00:41;17.40;99.90
52103;DHT22;38101;53.126;6.878;2023-10-09T13:03:13;17.40;99.90
52103;DHT22;38101;53.126;6.878;2023-10-09T13:05:50;17.40;99.90
52103;DHT22;38101;53.126;6.878;2023-10-09T13:08:28;17.30;99.90
52103;DHT22;38101;53.126;6.878;2023-10-09T13:11:09;17.40;99.90
52103;DHT22;38101;53.126;6.878;2023-10-09T13:13:44;17.40;99.90
52103;DHT22;38101;53.126;6.878;2023-10-09T13:16:13;17.30;99.90
52103;DHT22;38101;53.126;6.878;2023-10-09T13:18:48;17.30;99.90
52103;DHT22;38101;53.126;6.878;2023-10-09T13:21:21;17.30;99.90
52103;DHT22;38101;53.126;6.878;2023-10-09T13:23:48;17.50;99.90
52103;DHT22;38101;53.126;6.878;2023-10-09T13:26:19;17.60;99.90
52103;DHT22;38101;53.126;6.878;2023-10-09T13:28:50;17.60;99.90
52103;DHT22;38101;53.126;6.878;2023-10-09T13:31:16;17.70;99.90
52103;DHT22;38101;53.126;6.878;2023-10-09T13:33:43;17.80;99.90
52103;DHT22;38101;53.126;6.878;2023-10-09T13:36:13;17.80;99.90
52103;DHT22;38101;53.126;6.878;2023-10-09T13:38:45;17.70;99.90
52103;DHT22;38101;53.126;6.878;2023-10-09T13:41:11;17.60;99.90
52103;DHT22;38101;53.126;6.878;2023-10-09T13:43:43;17.60;99.90
52103;DHT22;38101;53.126;6.878;2023-10-09T13:46:09;17.60;99.90
52103;DHT22;38101;53.126;6.878;2023-10-09T13:48:39;17.70;99.90
52103;DHT22;38101;53.126;6.878;2023-10-09T13:51:10;17.70;99.90
52103;DHT22;38101;53.126;6.878;2023-10-09T13:53:49;17.70;99.90
52103;DHT22;38101;53.126;6.878;2023-10-09T13:56:19;17.70;99.90
52103;DHT22;38101;53.126;6.878;2023-10-09T13:58:48;17.70;99.90
52103;DHT22;38101;53.126;6.878;2023-10-09T14:01:19;17.70;99.90
52103;DHT22;38101;53.126;6.878;2023-10-09T14:03:58;17.60;99.90
52103;DHT22;38101;53.126;6.878;2023-10-09T14:06:25;17.60;99.90
52103;DHT22;38101;53.126;6.878;2023-10-09T14:09:02;17.50;99.90
52103;DHT22;38101;53.126;6.878;2023-10-09T14:11:34;17.50;99.90
52103;DHT22;38101;53.126;6.878;2023-10-09T14:14:05;17.40;99.90
52103;DHT22;38101;53.126;6.878;2023-10-09T14:16:36;17.40;99.90
52103;DHT22;38101;53.126;6.878;2023-10-09T14:19:02;17.40;99.90
52103;DHT22;38101;53.126;6.878;2023-10-09T14:21:33;17.50;99.90
52103;DHT22;38101;53.126;6.878;2023-10-09T14:24:07;17.40;99.90
52103;DHT22;38101;53.126;6.878;2023-10-09T14:26:42;17.50;99.90
52103;DHT22;38101;53.126;6.878;2023-10-09T14:29:10;17.40;99.90
52103;DHT22;38101;53.126;6.878;2023-10-09T14:31:40;17.40;99.90
52103;DHT22;38101;53.126;6.878;2023-10-09T14:34:07;17.40;99.90
52103;DHT22;38101;53.126;6.878;2023-10-09T14:36:34;17.40;99.90
52103;DHT22;38101;53.126;6.878;2023-10-09T14:39:01;17.30;99.90
52103;DHT22;38101;53.126;6.878;2023-10-09T14:41:27;17.20;99.90
52103;DHT22;38101;53.126;6.878;2023-10-09T14:43:54;17.20;99.90
52103;DHT22;38101;53.126;6.878;2023-10-09T14:46:20;17.10;99.90
52103;DHT22;38101;53.126;6.878;2023-10-09T14:48:55;17.10;99.90
52103;DHT22;38101;53.126;6.878;2023-10-09T14:51:23;17.20;99.90
52103;DHT22;38101;53.126;6.878;2023-10-09T14:53:56;17.10;99.90
52103;DHT22;38101;53.126;6.878;2023-10-09T14:56:30;17.20;99.90
52103;DHT22;38101;53.126;6.878;2023-10-09T14:58:57;17.20;99.90
52103;DHT22;38101;53.126;6.878;2023-10-09T15:01:28;17.20;99.90
52103;DHT22;38101;53.126;6.878;2023-10-09T15:03:58;17.20;99.90
52103;DHT22;38101;53.126;6.878;2023-10-09T15:06:29;17.10;99.90
52103;DHT22;38101;53.126;6.878;2023-10-09T15:08:59;17.20;99.90
52103;DHT22;38101;53.126;6.878;2023-10-09T15:11:26;17.10;99.90
52103;DHT22;38101;53.126;6.878;2023-10-09T15:13:55;17.00;99.90
52103;DHT22;38101;53.126;6.878;2023-10-09T15:16:23;17.00;99.90
52103;DHT22;38101;53.126;6.878;2023-10-09T15:18:53;16.90;99.90
52103;DHT22;38101;53.126;6.878;2023-10-09T15:21:20;17.00;99.90
52103;DHT22;38101;53.126;6.878;2023-10-09T15:23:53;17.10;99.90
52103;DHT22;38101;53.126;6.878;2023-10-09T15:26:20;17.10;99.90
52103;DHT22;38101;53.126;6.878;2023-10-09T15:28:46;17.00;99.90
52103;DHT22;38101;53.126;6.878;2023-10-09T15:31:12;17.10;99.90
52103;DHT22;38101;53.126;6.878;2023-10-09T15:33:38;17.00;99.90
52103;DHT22;38101;53.126;6.878;2023-10-09T15:36:16;17.00;99.90
52103;DHT22;38101;53.126;6.878;2023-10-09T15:38:50;17.10;99.90
52103;DHT22;38101;53.126;6.878;2023-10-09T15:41:17;17.10;99.90
52103;DHT22;38101;53.126;6.878;2023-10-09T15:43:46;17.00;99.90
52103;DHT22;38101;53.126;6.878;2023-10-09T15:46:13;17.00;99.90
52103;DHT22;38101;53.126;6.878;2023-10-09T15:48:43;17.00;99.90
52103;DHT22;38101;53.126;6.878;2023-10-09T15:51:12;16.90;99.90
52103;DHT22;38101;53.126;6.878;2023-10-09T15:53:45;16.90;99.90
52103;DHT22;38101;53.126;6.878;2023-10-09T15:56:12;17.00;99.90
52103;DHT22;38101;53.126;6.878;2023-10-09T15:58:41;16.90;99.90
52103;DHT22;38101;53.126;6.878;2023-10-09T16:01:14;17.00;99.90
52103;DHT22;38101;53.126;6.878;2023-10-09T16:03:44;16.90;99.90
52103;DHT22;38101;53.126;6.878;2023-10-09T16:06:10;16.90;99.90
52103;DHT22;38101;53.126;6.878;2023-10-09T16:08:46;16.90;99.90
52103;DHT22;38101;53.126;6.878;2023-10-09T16:11:19;16.90;99.90
52103;DHT22;38101;53.126;6.878;2023-10-09T16:13:49;16.90;99.90
52103;DHT22;38101;53.126;6.878;2023-10-09T16:16:24;16.90;99.90
52103;DHT22;38101;53.126;6.878;2023-10-09T16:18:50;16.90;99.90
52103;DHT22;38101;53.126;6.878;2023-10-09T16:21:17;16.90;99.90
52103;DHT22;38101;53.126;6.878;2023-10-09T16:23:43;16.80;99.90